Time;durP1;ratioP1;P1;durP2;ratioP2;P2;SDS_P1;SDS_P2;PMS_P1;PMS_P2;Temp;Humidity;BMP_temperature;BMP_pressure;BME280_temperature;BME280_humidity;BME280_pressure;Samples;Min_cycle;Max_cycle;Signal;HPM_P1;HPM_P2
2022/09/09 00:00:18;;;;;;;11.73;6.20;;;;;;;;;;4391521;32;20472;-66
2022/09/09 00:03:04;;;;;;;11.13;6.43;;;;;;;;;;4390865;32;20027;-67
2022/09/09 00:05:38;;;;;;;10.07;6.20;;;;;;;;;;4391597;32;20030;-66
2022/09/09 00:08:06;;;;;;;9.57;6.32;;;;;;;;;;4392321;32;20023;-66
2022/09/09 00:10:33;;;;;;;8.90;6.75;;;;;;;;;;4391182;32;20435;-66
2022/09/09 00:13:18;;;;;;;14.57;8.40;;;;;;;;;;4391073;32;20034;-67
2022/09/09 00:16:03;;;;;;;15.20;7.75;;;;;;;;;;4390922;32;20092;-66
2022/09/09 00:18:33;;;;;;;13.98;8.93;;;;;;;;;;4377279;32;20023;-67
2022/09/09 00:21:17;;;;;;;11.82;8.07;;;;;;;;;;4375713;32;20318;-66
2022/09/09 00:23:48;;;;;;;12.37;8.82;;;;;;;;;;4377291;32;20039;-66
2022/09/09 00:26:21;;;;;;;16.00;9.07;;;;;;;;;;4376627;32;20439;-66
2022/09/09 00:28:54;;;;;;;15.20;9.32;;;;;;;;;;4375910;32;20136;-67
2022/09/09 00:31:24;;;;;;;18.60;9.13;;;;;;;;;;4378988;32;20022;-66
2022/09/09 00:33:50;;;;;;;13.52;8.60;;;;;;;;;;4392212;32;20077;-67
2022/09/09 00:36:17;;;;;;;15.15;9.10;;;;;;;;;;4376761;32;20026;-67
2022/09/09 00:38:49;;;;;;;15.65;10.38;;;;;;;;;;4423902;27;20533;-61
2022/09/09 00:41:21;;;;;;;12.70;8.98;;;;;;;;;;4421794;32;20082;-60
2022/09/09 00:43:53;;;;;;;13.43;9.75;;;;;;;;;;4420116;32;20075;-61
2022/09/09 00:46:28;;;;;;;15.10;11.40;;;;;;;;;;4406210;32;20092;-61
2022/09/09 00:48:54;;;;;;;16.10;11.20;;;;;;;;;;4391590;32;20048;-61
2022/09/09 00:51:28;;;;;;;16.55;11.20;;;;;;;;;;4405360;32;20030;-59
2022/09/09 00:53:53;;;;;;;14.85;10.60;;;;;;;;;;4406214;32;20022;-60
2022/09/09 00:56:21;;;;;;;14.27;11.30;;;;;;;;;;4391968;32;20087;-60
2022/09/09 00:59:16;;;;;;;16.15;10.60;;;;;;;;;;4405734;32;20083;-60
2022/09/09 01:01:41;;;;;;;14.77;10.93;;;;;;;;;;4378942;32;20045;-60
2022/09/09 01:04:11;;;;;;;13.00;10.32;;;;;;;;;;4408114;32;20380;-60
2022/09/09 01:06:38;;;;;;;13.35;11.15;;;;;;;;;;4421030;32;20074;-60
2022/09/09 01:09:15;;;;;;;13.80;11.07;;;;;;;;;;4421755;32;20033;-60
2022/09/09 01:11:49;;;;;;;18.90;12.82;;;;;;;;;;4420078;32;20094;-60
2022/09/09 01:14:14;;;;;;;16.45;12.40;;;;;;;;;;4422056;32;20022;-61
2022/09/09 01:16:41;;;;;;;14.48;12.02;;;;;;;;;;4422086;32;20021;-61
2022/09/09 01:19:09;;;;;;;16.80;12.25;;;;;;;;;;4407689;32;20113;-60
2022/09/09 01:21:39;;;;;;;19.52;12.70;;;;;;;;;;4421588;32;20053;-59
2022/09/09 01:24:14;;;;;;;18.70;11.60;;;;;;;;;;4421967;32;20149;-60
2022/09/09 01:26:41;;;;;;;16.55;12.05;;;;;;;;;;4421633;32;20026;-61
2022/09/09 01:29:07;;;;;;;16.87;11.10;;;;;;;;;;4407821;32;20041;-62
2022/09/09 01:31:51;;;;;;;18.48;12.00;;;;;;;;;;4420404;32;20091;-61
2022/09/09 01:34:17;;;;;;;14.68;11.57;;;;;;;;;;4418838;32;20127;-61
2022/09/09 01:37:04;;;;;;;16.95;11.40;;;;;;;;;;4392144;32;20432;-61
2022/09/09 01:39:29;;;;;;;16.37;12.57;;;;;;;;;;4389479;32;20068;-61
2022/09/09 01:41:55;;;;;;;16.55;11.15;;;;;;;;;;4389958;32;20058;-60
2022/09/09 01:44:21;;;;;;;17.15;10.52;;;;;;;;;;4391173;32;20052;-61
2022/09/09 01:46:46;;;;;;;15.43;9.85;;;;;;;;;;4391433;32;20030;-61
2022/09/09 01:49:12;;;;;;;22.90;11.23;;;;;;;;;;4390732;32;20580;-61
2022/09/09 01:51:38;;;;;;;20.02;12.18;;;;;;;;;;4390757;32;20023;-61
2022/09/09 01:54:04;;;;;;;19.58;11.38;;;;;;;;;;4390085;32;20035;-61
2022/09/09 01:56:29;;;;;;;15.32;11.15;;;;;;;;;;4400281;32;20049;-61
2022/09/09 01:58:59;;;;;;;18.98;11.23;;;;;;;;;;4408545;32;20022;-62
2022/09/09 02:01:30;;;;;;;18.92;10.77;;;;;;;;;;4408170;32;20130;-60
2022/09/09 02:03:56;;;;;;;13.82;11.05;;;;;;;;;;4407002;32;20052;-60
2022/09/09 02:06:34;;;;;;;15.48;10.05;;;;;;;;;;4407861;32;20049;-62
2022/09/09 02:09:02;;;;;;;13.02;10.40;;;;;;;;;;4407920;32;20030;-62
2022/09/09 02:11:31;;;;;;;15.55;10.48;;;;;;;;;;4393495;32;20022;-62
2022/09/09 02:13:59;;;;;;;14.98;10.75;;;;;;;;;;4407614;32;20388;-61
2022/09/09 02:16:34;;;;;;;17.23;11.57;;;;;;;;;;4407797;32;20034;-61
2022/09/09 02:19:26;;;;;;;13.38;10.27;;;;;;;;;;4402847;32;20328;-61
2022/09/09 02:21:53;;;;;;;18.35;12.32;;;;;;;;;;4393518;32;20022;-61
2022/09/09 02:24:18;;;;;;;17.52;11.40;;;;;;;;;;4394164;32;20467;-60
2022/09/09 02:26:46;;;;;;;20.98;12.55;;;;;;;;;;4393722;32;20031;-61
2022/09/09 02:29:14;;;;;;;16.90;11.85;;;;;;;;;;4394156;32;20407;-61
2022/09/09 02:31:40;;;;;;;20.45;11.77;;;;;;;;;;4394147;32;20038;-60
2022/09/09 02:34:10;;;;;;;20.67;12.05;;;;;;;;;;4398833;32;20355;-60
2022/09/09 02:36:36;;;;;;;19.12;12.32;;;;;;;;;;4391282;32;20049;-60
2022/09/09 02:39:02;;;;;;;19.33;13.48;;;;;;;;;;4392107;32;20065;-60
2022/09/09 02:41:32;;;;;;;18.48;12.75;;;;;;;;;;4392406;32;20065;-61
2022/09/09 02:43:57;;;;;;;18.75;12.30;;;;;;;;;;4393549;32;20397;-61
2022/09/09 02:46:35;;;;;;;26.02;13.70;;;;;;;;;;4378398;32;20073;-60
2022/09/09 02:49:08;;;;;;;19.17;13.07;;;;;;;;;;4403362;32;20069;-62
2022/09/09 02:51:36;;;;;;;22.13;12.48;;;;;;;;;;4392437;32;20306;-62
2022/09/09 02:54:16;;;;;;;20.92;14.35;;;;;;;;;;4391960;32;20031;-60
2022/09/09 02:56:45;;;;;;;20.55;13.77;;;;;;;;;;4393938;32;20026;-61
2022/09/09 02:59:11;;;;;;;24.17;14.15;;;;;;;;;;4393616;32;20336;-61
2022/09/09 03:01:37;;;;;;;20.92;13.23;;;;;;;;;;4378773;32;20030;-61
2022/09/09 03:04:04;;;;;;;20.33;13.27;;;;;;;;;;4393279;32;20112;-61
2022/09/09 03:06:30;;;;;;;20.73;14.87;;;;;;;;;;4391172;32;20080;-61
2022/09/09 03:08:56;;;;;;;21.58;14.77;;;;;;;;;;4392297;32;20034;-61
2022/09/09 03:11:21;;;;;;;25.08;13.23;;;;;;;;;;4391808;32;20083;-60
2022/09/09 03:13:46;;;;;;;18.27;12.48;;;;;;;;;;4391586;32;20057;-62
2022/09/09 03:16:12;;;;;;;22.60;13.85;;;;;;;;;;4393008;32;20200;-60
2022/09/09 03:18:37;;;;;;;21.95;14.43;;;;;;;;;;4391516;32;20038;-61
2022/09/09 03:21:02;;;;;;;22.98;14.68;;;;;;;;;;4390403;32;20471;-61
2022/09/09 03:23:28;;;;;;;19.83;13.80;;;;;;;;;;4392831;32;20053;-61
2022/09/09 03:25:56;;;;;;;19.58;13.65;;;;;;;;;;4393212;32;20031;-61
2022/09/09 03:28:23;;;;;;;22.10;14.05;;;;;;;;;;4392309;32;20027;-61
2022/09/09 03:30:48;;;;;;;21.65;13.62;;;;;;;;;;4393003;32;20026;-61
2022/09/09 03:33:16;;;;;;;19.10;13.70;;;;;;;;;;4391513;32;20134;-61
2022/09/09 03:35:46;;;;;;;22.83;14.70;;;;;;;;;;4377304;32;20067;-60
2022/09/09 03:38:11;;;;;;;17.83;13.57;;;;;;;;;;4392469;32;20441;-61
2022/09/09 03:40:37;;;;;;;19.30;12.52;;;;;;;;;;4391527;32;20026;-60
2022/09/09 03:43:02;;;;;;;18.73;13.40;;;;;;;;;;4385380;32;20454;-60
2022/09/09 03:45:27;;;;;;;18.70;13.32;;;;;;;;;;4377195;32;20031;-61
2022/09/09 03:47:54;;;;;;;22.05;12.15;;;;;;;;;;4374456;32;20438;-60
2022/09/09 03:50:19;;;;;;;22.10;11.80;;;;;;;;;;4376284;32;20119;-61
2022/09/09 03:52:44;;;;;;;16.35;10.25;;;;;;;;;;4373154;32;20144;-61
2022/09/09 03:55:09;;;;;;;16.58;11.98;;;;;;;;;;4392594;32;20410;-60
2022/09/09 03:57:35;;;;;;;19.55;10.73;;;;;;;;;;4391545;32;20018;-61
2022/09/09 04:00:05;;;;;;;15.10;9.82;;;;;;;;;;4389718;32;20417;-62
2022/09/09 04:02:30;;;;;;;20.12;10.82;;;;;;;;;;4375973;32;20053;-61
2022/09/09 04:04:56;;;;;;;19.75;9.32;;;;;;;;;;4375944;32;20019;-60
2022/09/09 04:07:21;;;;;;;17.02;10.00;;;;;;;;;;4363583;32;20052;-60
2022/09/09 04:09:46;;;;;;;15.80;9.27;;;;;;;;;;4377307;32;20027;-61
2022/09/09 04:12:13;;;;;;;15.60;9.73;;;;;;;;;;4376504;32;20538;-61
2022/09/09 04:14:38;;;;;;;13.77;7.87;;;;;;;;;;4375626;32;20134;-61
2022/09/09 04:17:06;;;;;;;10.88;8.32;;;;;;;;;;4376704;32;20110;-60
2022/09/09 04:19:31;;;;;;;13.40;8.30;;;;;;;;;;4362055;32;20023;-61
2022/09/09 04:21:56;;;;;;;16.77;7.15;;;;;;;;;;4381861;32;20026;-61
2022/09/09 04:24:21;;;;;;;9.90;7.05;;;;;;;;;;4389648;32;20026;-60
2022/09/09 04:26:47;;;;;;;10.30;6.82;;;;;;;;;;4391594;32;20049;-61
2022/09/09 04:29:12;;;;;;;11.57;6.25;;;;;;;;;;4390753;32;20084;-61
2022/09/09 04:31:41;;;;;;;18.42;7.25;;;;;;;;;;4391942;32;20027;-60
2022/09/09 04:34:07;;;;;;;14.02;6.18;;;;;;;;;;4390268;32;20421;-60
2022/09/09 04:36:32;;;;;;;11.15;5.68;;;;;;;;;;4389007;32;20058;-60
2022/09/09 04:38:58;;;;;;;10.07;5.68;;;;;;;;;;4398465;32;20133;-61
2022/09/09 04:41:23;;;;;;;9.60;5.55;;;;;;;;;;4406837;32;20049;-62
2022/09/09 04:43:48;;;;;;;10.35;5.18;;;;;;;;;;4407098;32;20070;-61
2022/09/09 04:46:16;;;;;;;8.75;5.40;;;;;;;;;;4405608;32;20060;-61
2022/09/09 04:48:42;;;;;;;14.23;6.55;;;;;;;;;;4405341;32;20068;-60
2022/09/09 04:51:10;;;;;;;14.48;6.60;;;;;;;;;;4400242;32;20031;-60
2022/09/09 04:53:35;;;;;;;10.05;5.97;;;;;;;;;;4390484;32;20117;-60
2022/09/09 04:56:21;;;;;;;13.90;6.53;;;;;;;;;;4390374;32;20022;-61
2022/09/09 04:58:46;;;;;;;10.48;6.53;;;;;;;;;;4391612;32;20053;-61
2022/09/09 05:01:17;;;;;;;12.75;6.35;;;;;;;;;;4391523;32;20089;-61
2022/09/09 05:03:42;;;;;;;11.73;5.85;;;;;;;;;;4377624;32;20046;-61
2022/09/09 05:06:09;;;;;;;15.68;6.85;;;;;;;;;;4380327;32;20030;-61
2022/09/09 05:08:36;;;;;;;19.50;6.55;;;;;;;;;;4405654;32;20076;-61
2022/09/09 05:11:01;;;;;;;13.65;5.60;;;;;;;;;;4393453;32;20069;-60
2022/09/09 05:13:27;;;;;;;17.90;5.80;;;;;;;;;;4390249;32;20429;-61
2022/09/09 05:15:52;;;;;;;13.90;5.80;;;;;;;;;;4397359;32;20427;-60
2022/09/09 05:18:18;;;;;;;13.40;6.43;;;;;;;;;;4406087;32;20135;-60
2022/09/09 05:20:43;;;;;;;7.82;5.40;;;;;;;;;;4406061;32;20097;-61
2022/09/09 05:23:11;;;;;;;11.38;5.62;;;;;;;;;;4403996;32;20139;-60
2022/09/09 05:25:36;;;;;;;15.02;6.18;;;;;;;;;;4405326;32;20034;-61
2022/09/09 05:28:01;;;;;;;13.57;6.00;;;;;;;;;;4400300;32;20073;-60
2022/09/09 05:30:27;;;;;;;12.77;5.62;;;;;;;;;;4376605;32;20035;-61
2022/09/09 05:32:52;;;;;;;13.68;5.78;;;;;;;;;;4393005;32;20392;-61
2022/09/09 05:35:18;;;;;;;14.07;5.75;;;;;;;;;;4400178;32;20076;-61
2022/09/09 05:37:45;;;;;;;16.12;5.72;;;;;;;;;;4406221;32;20065;-61
2022/09/09 05:40:11;;;;;;;14.85;4.93;;;;;;;;;;4408943;32;20026;-61
2022/09/09 05:42:36;;;;;;;16.95;5.40;;;;;;;;;;4394858;32;20034;-60
2022/09/09 05:45:01;;;;;;;15.68;5.87;;;;;;;;;;4407718;32;20021;-60
2022/09/09 05:47:27;;;;;;;14.77;5.18;;;;;;;;;;4407326;32;20029;-62
2022/09/09 05:49:52;;;;;;;11.57;5.05;;;;;;;;;;4406173;32;20515;-60
2022/09/09 05:52:17;;;;;;;9.32;4.65;;;;;;;;;;4408833;32;20045;-61
2022/09/09 05:54:43;;;;;;;25.90;6.82;;;;;;;;;;4407459;32;20076;-61
2022/09/09 05:57:09;;;;;;;15.15;5.40;;;;;;;;;;4407835;32;20121;-61
2022/09/09 05:59:34;;;;;;;16.77;5.20;;;;;;;;;;4406596;32;20057;-60
2022/09/09 06:01:59;;;;;;;15.85;5.65;;;;;;;;;;4392845;32;20060;-60
2022/09/09 06:04:24;;;;;;;17.40;5.78;;;;;;;;;;4393798;32;20026;-63
2022/09/09 06:06:50;;;;;;;15.47;5.40;;;;;;;;;;4393062;32;20416;-62
2022/09/09 06:09:15;;;;;;;10.88;4.60;;;;;;;;;;4391696;32;20130;-61
2022/09/09 06:11:40;;;;;;;16.33;5.15;;;;;;;;;;4393591;32;20027;-61
2022/09/09 06:14:06;;;;;;;14.23;5.05;;;;;;;;;;4392204;32;20052;-63
2022/09/09 06:16:32;;;;;;;13.10;5.00;;;;;;;;;;4396991;32;20049;-60
2022/09/09 06:18:58;;;;;;;17.67;5.45;;;;;;;;;;4392806;32;20094;-60
2022/09/09 06:21:24;;;;;;;16.45;7.07;;;;;;;;;;4392010;32;20027;-62
2022/09/09 06:23:51;;;;;;;11.23;3.83;;;;;;;;;;4392349;32;20055;-60
2022/09/09 06:26:17;;;;;;;11.73;4.93;;;;;;;;;;4393330;32;20368;-61
2022/09/09 06:28:43;;;;;;;14.20;4.80;;;;;;;;;;4393337;32;20066;-61
2022/09/09 06:31:10;;;;;;;15.70;5.50;;;;;;;;;;4391685;32;20048;-63
2022/09/09 06:33:40;;;;;;;18.98;5.12;;;;;;;;;;4393368;32;20388;-61
2022/09/09 06:36:06;;;;;;;21.83;4.53;;;;;;;;;;4392055;32;20026;-62
2022/09/09 06:38:31;;;;;;;16.00;4.55;;;;;;;;;;4402581;32;20383;-62
2022/09/09 06:40:57;;;;;;;19.90;5.05;;;;;;;;;;4394351;32;20065;-62
2022/09/09 06:43:23;;;;;;;13.93;4.78;;;;;;;;;;4406280;32;20062;-62
2022/09/09 06:45:56;;;;;;;13.70;4.87;;;;;;;;;;4399766;32;20488;-62
2022/09/09 06:48:21;;;;;;;21.87;5.78;;;;;;;;;;4378032;32;20401;-62
2022/09/09 06:50:46;;;;;;;11.20;5.05;;;;;;;;;;4390535;32;20027;-62
2022/09/09 06:53:12;;;;;;;16.98;4.87;;;;;;;;;;4392677;32;20027;-61
2022/09/09 06:55:37;;;;;;;13.85;5.80;;;;;;;;;;4392426;32;20027;-62
2022/09/09 06:58:07;;;;;;;17.83;5.70;;;;;;;;;;4392858;32;20058;-62
2022/09/09 07:00:32;;;;;;;12.18;4.87;;;;;;;;;;4392380;32;20026;-60
2022/09/09 07:02:57;;;;;;;13.45;5.78;;;;;;;;;;4405341;32;20049;-62
2022/09/09 07:05:23;;;;;;;19.15;6.53;;;;;;;;;;4405933;32;20087;-62
2022/09/09 07:07:48;;;;;;;16.42;5.15;;;;;;;;;;4386604;32;20126;-62
2022/09/09 07:10:13;;;;;;;19.00;5.70;;;;;;;;;;4391961;32;20050;-61
2022/09/09 07:12:38;;;;;;;11.68;4.97;;;;;;;;;;4376230;32;20391;-60
2022/09/09 07:15:04;;;;;;;13.53;5.30;;;;;;;;;;4390697;32;20064;-63
2022/09/09 07:17:29;;;;;;;22.08;6.35;;;;;;;;;;4390202;32;20124;-61
2022/09/09 07:19:54;;;;;;;15.93;6.00;;;;;;;;;;4398356;32;20027;-62
2022/09/09 07:22:20;;;;;;;11.73;5.65;;;;;;;;;;4406319;32;20144;-62
2022/09/09 07:24:45;;;;;;;13.52;5.95;;;;;;;;;;4405120;32;20038;-61
2022/09/09 07:27:10;;;;;;;18.98;7.22;;;;;;;;;;4406035;32;20079;-61
2022/09/09 07:29:35;;;;;;;18.73;6.50;;;;;;;;;;4405355;32;20069;-63
2022/09/09 07:32:02;;;;;;;13.25;5.43;;;;;;;;;;4405073;32;20086;-64
2022/09/09 07:34:27;;;;;;;16.67;5.95;;;;;;;;;;4396196;32;20027;-61
2022/09/09 07:36:52;;;;;;;12.75;5.32;;;;;;;;;;4390464;32;20069;-62
2022/09/09 07:39:18;;;;;;;17.85;6.32;;;;;;;;;;4390101;32;20038;-61
2022/09/09 07:41:44;;;;;;;17.60;6.72;;;;;;;;;;4391451;32;20364;-62
2022/09/09 07:44:12;;;;;;;11.85;6.22;;;;;;;;;;4390886;32;20056;-61
2022/09/09 07:46:39;;;;;;;14.57;7.28;;;;;;;;;;4378480;32;20027;-62
2022/09/09 07:49:04;;;;;;;12.35;6.47;;;;;;;;;;4401097;32;20031;-62
2022/09/09 07:51:31;;;;;;;11.30;5.93;;;;;;;;;;4404635;32;20056;-60
2022/09/09 07:53:58;;;;;;;15.68;5.75;;;;;;;;;;4402063;32;20057;-61
2022/09/09 07:56:24;;;;;;;13.30;6.20;;;;;;;;;;4393349;32;20080;-61
2022/09/09 07:58:50;;;;;;;11.45;5.90;;;;;;;;;;4406286;32;20027;-61
2022/09/09 08:01:23;;;;;;;12.55;6.18;;;;;;;;;;4406683;32;20149;-61
2022/09/09 08:03:54;;;;;;;12.73;7.65;;;;;;;;;;4401619;32;20083;-61
2022/09/09 08:06:19;;;;;;;20.52;6.37;;;;;;;;;;4383014;32;20066;-61
2022/09/09 08:08:45;;;;;;;12.25;5.40;;;;;;;;;;4399649;32;20026;-61
2022/09/09 08:11:14;;;;;;;14.25;5.95;;;;;;;;;;4405645;32;20071;-60
2022/09/09 08:13:40;;;;;;;18.48;6.25;;;;;;;;;;4382289;32;20030;-61
2022/09/09 08:16:22;;;;;;;18.33;7.30;;;;;;;;;;4382554;32;20371;-61
2022/09/09 08:18:48;;;;;;;11.20;5.70;;;;;;;;;;4377597;32;20027;-62
2022/09/09 08:21:18;;;;;;;12.37;5.75;;;;;;;;;;4391846;32;20096;-60
2022/09/09 08:23:44;;;;;;;17.73;5.68;;;;;;;;;;4397779;32;20065;-62
2022/09/09 08:26:14;;;;;;;13.85;6.18;;;;;;;;;;4381935;32;20065;-62
2022/09/09 08:28:40;;;;;;;15.45;6.37;;;;;;;;;;4394180;32;20023;-63
2022/09/09 08:31:13;;;;;;;12.48;5.78;;;;;;;;;;4400178;32;20176;-62
2022/09/09 08:33:38;;;;;;;16.87;5.70;;;;;;;;;;4389267;32;20022;-62
2022/09/09 08:36:05;;;;;;;17.73;6.12;;;;;;;;;;4384153;32;20076;-61
2022/09/09 08:38:30;;;;;;;12.13;4.72;;;;;;;;;;4398377;32;20437;-62
2022/09/09 08:41:00;;;;;;;16.83;5.97;;;;;;;;;;4405445;32;20048;-61
2022/09/09 08:43:28;;;;;;;16.95;5.22;;;;;;;;;;4396572;32;20025;-62
2022/09/09 08:46:00;;;;;;;16.45;4.82;;;;;;;;;;4389070;32;20119;-62
2022/09/09 08:48:43;;;;;;;16.25;5.95;;;;;;;;;;4385444;32;20031;-62
2022/09/09 08:51:09;;;;;;;29.85;6.60;;;;;;;;;;4374978;32;20034;-60
2022/09/09 08:53:40;;;;;;;23.02;6.05;;;;;;;;;;4375751;32;20030;-63
2022/09/09 08:56:09;;;;;;;15.32;5.37;;;;;;;;;;4374787;32;20054;-61
2022/09/09 08:58:36;;;;;;;19.30;5.35;;;;;;;;;;4398408;32;20019;-60
2022/09/09 09:01:23;;;;;;;13.82;4.60;;;;;;;;;;4405718;32;20058;-62
2022/09/09 09:04:04;;;;;;;12.60;4.62;;;;;;;;;;4376548;32;20337;-60
2022/09/09 09:06:39;;;;;;;16.77;5.62;;;;;;;;;;4389338;32;20065;-60
2022/09/09 09:09:10;;;;;;;16.73;5.57;;;;;;;;;;4379267;32;20027;-61
2022/09/09 09:11:39;;;;;;;18.87;6.55;;;;;;;;;;4375089;32;20031;-61
2022/09/09 09:14:16;;;;;;;17.98;6.45;;;;;;;;;;4375673;32;20045;-61
2022/09/09 09:16:54;;;;;;;11.50;5.28;;;;;;;;;;4374056;32;20049;-61
2022/09/09 09:19:22;;;;;;;13.57;5.28;;;;;;;;;;4376395;32;20065;-61
2022/09/09 09:21:53;;;;;;;14.45;5.60;;;;;;;;;;4362368;32;20444;-61
2022/09/09 09:24:20;;;;;;;21.27;6.03;;;;;;;;;;4389353;32;20460;-62
2022/09/09 09:26:46;;;;;;;13.73;5.37;;;;;;;;;;4405540;32;20053;-61
2022/09/09 09:29:16;;;;;;;12.82;4.80;;;;;;;;;;4405186;32;20046;-61
2022/09/09 09:31:52;;;;;;;15.23;5.62;;;;;;;;;;4403209;32;20310;-61
2022/09/09 09:34:17;;;;;;;19.58;5.85;;;;;;;;;;4390486;32;20334;-61
2022/09/09 09:36:46;;;;;;;17.58;5.57;;;;;;;;;;4405137;32;20073;-62
2022/09/09 09:39:22;;;;;;;25.17;6.43;;;;;;;;;;4402998;32;20395;-61
2022/09/09 09:41:47;;;;;;;18.83;6.57;;;;;;;;;;4390537;32;20147;-62
2022/09/09 09:44:22;;;;;;;13.70;5.75;;;;;;;;;;4389829;32;20062;-61
2022/09/09 09:46:47;;;;;;;14.98;5.90;;;;;;;;;;4390348;32;20064;-61
2022/09/09 09:49:13;;;;;;;22.97;7.60;;;;;;;;;;4375144;32;20188;-61
2022/09/09 09:51:40;;;;;;;21.90;6.75;;;;;;;;;;4401383;32;20127;-62
2022/09/09 09:54:09;;;;;;;18.35;6.72;;;;;;;;;;4404661;32;20053;-64
2022/09/09 09:56:35;;;;;;;17.60;6.78;;;;;;;;;;4396979;32;20391;-62
2022/09/09 09:59:00;;;;;;;18.67;7.03;;;;;;;;;;4386126;32;20420;-61
2022/09/09 10:01:31;;;;;;;14.75;5.32;;;;;;;;;;4382796;32;20096;-61
2022/09/09 10:04:13;;;;;;;26.70;5.35;;;;;;;;;;4393518;32;20080;-61
2022/09/09 10:06:39;;;;;;;18.20;4.40;;;;;;;;;;4391197;32;20022;-62
2022/09/09 10:09:25;;;;;;;15.25;4.18;;;;;;;;;;4391213;32;20068;-62
2022/09/09 10:11:59;;;;;;;16.30;4.60;;;;;;;;;;4389055;32;20100;-62
2022/09/09 10:14:43;;;;;;;12.52;4.65;;;;;;;;;;4396234;32;20467;-62
2022/09/09 10:17:11;;;;;;;11.80;3.30;;;;;;;;;;4391792;32;20037;-61
2022/09/09 10:19:38;;;;;;;11.50;4.03;;;;;;;;;;4392708;32;20438;-61
2022/09/09 10:22:15;;;;;;;9.20;4.30;;;;;;;;;;4396361;32;20093;-62
2022/09/09 10:24:50;;;;;;;11.82;3.97;;;;;;;;;;4392424;32;20046;-61
2022/09/09 10:27:34;;;;;;;12.75;3.90;;;;;;;;;;4391854;32;20072;-62
2022/09/09 10:30:02;;;;;;;10.63;3.60;;;;;;;;;;4391849;32;20049;-61
2022/09/09 10:32:31;;;;;;;12.35;4.65;;;;;;;;;;4401217;32;20030;-61
2022/09/09 10:35:04;;;;;;;10.90;4.15;;;;;;;;;;4395759;32;20023;-61
2022/09/09 10:37:29;;;;;;;11.52;3.97;;;;;;;;;;4398315;32;20467;-61
2022/09/09 10:40:01;;;;;;;9.73;4.43;;;;;;;;;;4406223;32;20428;-61
2022/09/09 10:42:30;;;;;;;12.60;3.80;;;;;;;;;;4396005;32;20060;-61
2022/09/09 10:45:08;;;;;;;9.82;3.40;;;;;;;;;;4393123;32;20019;-61
2022/09/09 10:47:49;;;;;;;9.88;3.92;;;;;;;;;;4375431;32;20119;-61
2022/09/09 10:50:38;;;;;;;10.80;3.92;;;;;;;;;;4386558;32;20042;-61
2022/09/09 10:53:23;;;;;;;9.52;3.92;;;;;;;;;;4382585;32;20384;-62
2022/09/09 10:55:51;;;;;;;13.00;4.45;;;;;;;;;;4375357;32;20034;-61
2022/09/09 10:58:30;;;;;;;9.18;5.20;;;;;;;;;;4376315;32;20448;-60
2022/09/09 11:01:02;;;;;;;9.90;4.22;;;;;;;;;;4401461;32;20063;-61
2022/09/09 11:03:29;;;;;;;10.43;3.83;;;;;;;;;;4400684;32;20045;-60
2022/09/09 11:05:57;;;;;;;10.27;3.83;;;;;;;;;;4392778;32;20185;-60
2022/09/09 11:08:24;;;;;;;5.82;2.87;;;;;;;;;;4390745;32;20030;-61
2022/09/09 11:11:03;;;;;;;14.02;4.07;;;;;;;;;;4391322;32;20087;-62
2022/09/09 11:13:43;;;;;;;6.90;2.85;;;;;;;;;;4391094;32;20353;-61
2022/09/09 11:16:22;;;;;;;14.15;3.10;;;;;;;;;;4394091;32;20030;-61
2022/09/09 11:18:49;;;;;;;8.07;4.12;;;;;;;;;;4406184;32;20030;-61
2022/09/09 11:21:19;;;;;;;7.20;2.85;;;;;;;;;;4406314;32;20057;-60
2022/09/09 11:23:48;;;;;;;9.43;3.40;;;;;;;;;;4399085;32;20066;-61
2022/09/09 11:26:17;;;;;;;7.30;2.80;;;;;;;;;;4386614;32;20073;-62
2022/09/09 11:28:42;;;;;;;6.28;3.10;;;;;;;;;;4379332;32;20057;-61
2022/09/09 11:31:21;;;;;;;8.68;2.90;;;;;;;;;;4376124;32;20027;-61
2022/09/09 11:33:54;;;;;;;5.78;3.08;;;;;;;;;;4377516;32;20031;-59
2022/09/09 11:36:22;;;;;;;9.82;3.78;;;;;;;;;;4377188;32;20123;-60
2022/09/09 11:38:51;;;;;;;9.07;3.50;;;;;;;;;;4403862;32;20035;-61
2022/09/09 11:41:17;;;;;;;6.18;3.75;;;;;;;;;;4391186;32;20026;-61
2022/09/09 11:43:46;;;;;;;10.77;4.32;;;;;;;;;;4397772;32;20066;-60
2022/09/09 11:46:13;;;;;;;11.18;4.18;;;;;;;;;;4392339;32;20102;-61
2022/09/09 11:48:45;;;;;;;11.98;4.20;;;;;;;;;;4391577;32;20057;-61
2022/09/09 11:51:12;;;;;;;9.90;3.80;;;;;;;;;;4402223;32;20420;-59
2022/09/09 11:53:58;;;;;;;10.13;4.95;;;;;;;;;;4405292;32;20056;-60
2022/09/09 11:56:32;;;;;;;10.63;5.18;;;;;;;;;;4401855;32;20058;-60
2022/09/09 11:59:02;;;;;;;12.75;6.05;;;;;;;;;;4392154;32;20106;-60
2022/09/09 12:01:35;;;;;;;9.98;6.15;;;;;;;;;;4391625;32;20030;-60
2022/09/09 12:04:01;;;;;;;9.23;6.87;;;;;;;;;;4392086;32;20091;-60
2022/09/09 12:06:33;;;;;;;13.77;8.30;;;;;;;;;;4380715;32;20053;-60
2022/09/09 12:09:25;;;;;;;14.30;7.90;;;;;;;;;;4392695;32;20022;-60
2022/09/09 12:11:50;;;;;;;17.08;8.35;;;;;;;;;;4382730;32;20057;-61
2022/09/09 12:14:19;;;;;;;13.77;7.55;;;;;;;;;;4378050;32;20026;-60
2022/09/09 12:16:44;;;;;;;12.25;8.00;;;;;;;;;;4389835;32;20391;-60
2022/09/09 12:19:21;;;;;;;12.02;6.65;;;;;;;;;;4392122;32;20023;-61
2022/09/09 12:21:47;;;;;;;10.10;5.80;;;;;;;;;;4389822;32;20128;-60
2022/09/09 12:24:16;;;;;;;12.80;6.25;;;;;;;;;;4389783;32;20408;-60
2022/09/09 12:26:44;;;;;;;12.25;6.55;;;;;;;;;;4376075;32;20018;-61
2022/09/09 12:29:18;;;;;;;14.73;7.12;;;;;;;;;;4391295;32;20038;-60
2022/09/09 12:32:09;;;;;;;25.92;11.32;;;;;;;;;;4376314;32;20157;-62
2022/09/09 12:34:37;;;;;;;16.60;8.93;;;;;;;;;;4391434;32;20049;-61
2022/09/09 12:37:24;;;;;;;17.80;9.93;;;;;;;;;;4377555;32;20093;-61
2022/09/09 12:39:57;;;;;;;17.27;8.65;;;;;;;;;;4389709;32;20034;-62
2022/09/09 12:42:23;;;;;;;14.60;9.63;;;;;;;;;;4390027;32;20349;-60
2022/09/09 12:44:58;;;;;;;15.07;7.90;;;;;;;;;;4389819;32;20053;-62
2022/09/09 12:47:38;;;;;;;10.85;6.68;;;;;;;;;;4390551;32;20119;-63
2022/09/09 12:50:03;;;;;;;12.05;5.43;;;;;;;;;;4378086;32;20388;-62
2022/09/09 12:52:32;;;;;;;10.18;4.97;;;;;;;;;;4389007;32;20065;-64
2022/09/09 12:54:58;;;;;;;11.60;5.18;;;;;;;;;;4388803;32;20058;-61
2022/09/09 12:57:25;;;;;;;10.98;6.22;;;;;;;;;;4391332;32;20188;-61
2022/09/09 12:59:51;;;;;;;14.10;6.57;;;;;;;;;;4389541;32;20145;-61
2022/09/09 13:02:20;;;;;;;12.40;6.40;;;;;;;;;;4390718;32;20023;-61
2022/09/09 13:04:46;;;;;;;12.20;5.80;;;;;;;;;;4389342;32;20048;-62
2022/09/09 13:07:13;;;;;;;13.62;5.60;;;;;;;;;;4377648;32;20030;-61
2022/09/09 13:09:38;;;;;;;9.40;5.70;;;;;;;;;;4389534;32;20064;-62
2022/09/09 13:12:07;;;;;;;13.07;6.18;;;;;;;;;;4391447;32;20381;-62
2022/09/09 13:14:34;;;;;;;11.00;5.50;;;;;;;;;;4390983;32;20424;-61
2022/09/09 13:17:00;;;;;;;20.15;5.97;;;;;;;;;;4389576;32;20072;-61
2022/09/09 13:19:28;;;;;;;15.30;6.22;;;;;;;;;;4389573;32;20416;-62
2022/09/09 13:21:53;;;;;;;11.32;5.82;;;;;;;;;;4391502;32;20119;-62
2022/09/09 13:24:33;;;;;;;11.85;6.12;;;;;;;;;;4389445;32;20027;-63
2022/09/09 13:27:02;;;;;;;19.05;7.35;;;;;;;;;;4389244;32;20065;-61
2022/09/09 13:29:28;;;;;;;16.12;8.13;;;;;;;;;;4389213;32;20050;-61
2022/09/09 13:31:55;;;;;;;13.18;7.22;;;;;;;;;;4390906;32;20075;-62
2022/09/09 13:34:29;;;;;;;8.32;4.85;;;;;;;;;;4390865;32;20027;-61
2022/09/09 13:36:58;;;;;;;10.38;4.90;;;;;;;;;;4391375;32;20080;-63
2022/09/09 13:39:23;;;;;;;10.65;4.95;;;;;;;;;;4394686;32;20041;-62
2022/09/09 13:41:49;;;;;;;11.38;5.32;;;;;;;;;;4403297;32;20377;-63
2022/09/09 13:44:18;;;;;;;12.63;5.43;;;;;;;;;;4405038;32;20408;-63
2022/09/09 13:46:44;;;;;;;11.12;4.57;;;;;;;;;;4406718;32;20146;-61
2022/09/09 13:49:09;;;;;;;8.30;4.50;;;;;;;;;;4404109;32;20063;-63
2022/09/09 13:51:36;;;;;;;11.18;4.25;;;;;;;;;;4406347;32;20034;-62
2022/09/09 13:54:02;;;;;;;10.70;4.70;;;;;;;;;;4407563;32;20057;-63
2022/09/09 13:56:27;;;;;;;9.18;3.83;;;;;;;;;;4393793;32;20321;-63
2022/09/09 13:58:52;;;;;;;7.68;3.53;;;;;;;;;;4407720;32;20022;-62
2022/09/09 14:01:17;;;;;;;8.10;3.53;;;;;;;;;;4408415;32;20435;-62
2022/09/09 14:03:43;;;;;;;6.22;2.47;;;;;;;;;;4407431;32;20459;-61
2022/09/09 14:06:08;;;;;;;4.95;2.92;;;;;;;;;;4407353;32;20084;-62
2022/09/09 14:08:36;;;;;;;7.18;2.30;;;;;;;;;;4407903;32;20435;-62
2022/09/09 14:11:02;;;;;;;6.75;2.47;;;;;;;;;;4406004;32;20053;-62
2022/09/09 14:13:27;;;;;;;5.25;2.15;;;;;;;;;;4408071;32;20035;-62
2022/09/09 14:15:53;;;;;;;10.40;3.10;;;;;;;;;;4407494;32;20348;-61
2022/09/09 14:18:18;;;;;;;11.75;3.30;;;;;;;;;;4406167;32;20197;-61
2022/09/09 14:20:44;;;;;;;14.27;4.57;;;;;;;;;;4408978;32;20031;-63
2022/09/09 14:23:10;;;;;;;8.93;3.83;;;;;;;;;;4407523;32;20098;-62
2022/09/09 14:25:36;;;;;;;11.55;5.43;;;;;;;;;;4406932;32;20083;-62
2022/09/09 14:28:01;;;;;;;15.45;5.03;;;;;;;;;;4408135;32;20381;-62
2022/09/09 14:30:27;;;;;;;12.95;6.15;;;;;;;;;;4407672;32;20026;-61
2022/09/09 14:32:52;;;;;;;11.63;6.30;;;;;;;;;;4407056;32;20057;-61
2022/09/09 14:35:18;;;;;;;16.87;5.65;;;;;;;;;;4408656;32;20022;-62
2022/09/09 14:37:44;;;;;;;10.27;5.22;;;;;;;;;;4408037;32;20381;-61